createdAt,value
2023-01-29T00:00:39.470Z,50.03
2023-01-29T00:05:41.111Z,49.64
2023-01-29T00:10:42.643Z,49.04
2023-01-29T00:15:54.004Z,49.79
2023-01-29T00:20:55.892Z,49.71
2023-01-29T00:26:00.135Z,49.46
2023-01-29T00:31:13.223Z,49.34
2023-01-29T00:36:16.751Z,50.01
2023-01-29T00:41:18.203Z,49.91
2023-01-29T00:46:19.707Z,50.22
2023-01-29T00:51:21.188Z,49.68
2023-01-29T00:56:22.620Z,49.90
2023-01-29T01:01:24.357Z,50.20
2023-01-29T01:06:27.458Z,49.78
2023-01-29T01:11:28.928Z,49.67
2023-01-29T01:16:30.546Z,49.52
2023-01-29T01:21:32.718Z,49.44
2023-01-29T01:26:34.218Z,49.83
2023-01-29T01:31:35.789Z,49.07
2023-01-29T01:36:37.323Z,48.78
2023-01-29T01:41:38.821Z,48.80
2023-01-29T01:46:40.282Z,48.61
2023-01-29T01:51:52.449Z,48.60
2023-01-29T01:56:59.879Z,48.06
2023-01-29T02:02:01.442Z,48.68
2023-01-29T02:07:06.659Z,48.60
2023-01-29T02:12:12.440Z,48.27
2023-01-29T02:17:19.237Z,48.03
2023-01-29T02:22:35.928Z,47.65
2023-01-29T02:27:49.329Z,47.45
2023-01-29T02:33:05.926Z,47.42
2023-01-29T02:38:27.045Z,47.65
2023-01-29T02:43:40.415Z,47.58
2023-01-29T02:48:52.714Z,47.66
2023-01-29T02:54:19.872Z,47.89
2023-01-29T02:59:39.952Z,47.62
2023-01-29T03:04:50.789Z,47.38
2023-01-29T03:09:54.394Z,48.12
2023-01-29T03:14:58.933Z,48.50
2023-01-29T03:20:03.384Z,48.22
2023-01-29T03:25:06.330Z,48.08
2023-01-29T03:30:12.626Z,48.16
2023-01-29T03:35:34.374Z,47.88
2023-01-29T03:40:46.296Z,47.67
2023-01-29T03:46:09.682Z,47.87
2023-01-29T03:51:20.364Z,48.23
2023-01-29T03:56:37.899Z,48.13
2023-01-29T04:01:49.733Z,48.60
2023-01-29T04:06:52.981Z,48.25
2023-01-29T04:12:02.272Z,48.31
2023-01-29T04:17:13.433Z,48.54
2023-01-29T04:22:38.530Z,48.32
2023-01-29T04:28:02.586Z,48.50
2023-01-29T04:33:22.795Z,48.98
2023-01-29T04:38:34.916Z,49.16
2023-01-29T04:43:59.097Z,50.04
2023-01-29T04:49:09.357Z,50.15
2023-01-29T04:54:19.801Z,50.50
2023-01-29T04:59:32.273Z,50.27
2023-01-29T05:04:35.630Z,50.15
2023-01-29T05:09:39.068Z,50.43
2023-01-29T05:14:44.140Z,49.99
2023-01-29T05:19:46.759Z,49.97
2023-01-29T05:24:49.547Z,50.36
2023-01-29T05:29:51.133Z,50.47
2023-01-29T05:34:52.709Z,50.27
2023-01-29T05:39:54.207Z,50.46
2023-01-29T05:44:55.677Z,50.21
2023-01-29T05:49:57.209Z,50.56
2023-01-29T05:54:58.757Z,50.68
2023-01-29T06:00:00.456Z,50.86
2023-01-29T06:05:01.946Z,50.90
2023-01-29T06:10:03.952Z,51.16
2023-01-29T06:15:05.973Z,51.11
2023-01-29T06:20:08.330Z,51.00
2023-01-29T06:25:10.170Z,51.05
2023-01-29T06:30:12.248Z,51.43
2023-01-29T06:35:13.813Z,51.13
2023-01-29T06:40:15.726Z,51.76
2023-01-29T06:45:17.418Z,51.79
2023-01-29T06:50:19.174Z,52.12
2023-01-29T06:55:20.836Z,51.87
2023-01-29T07:00:22.530Z,52.08
2023-01-29T07:05:24.018Z,51.56
2023-01-29T07:10:25.522Z,51.85
2023-01-29T07:15:27.324Z,51.58
2023-01-29T07:20:30.205Z,50.84
2023-01-29T07:25:33.062Z,51.29
2023-01-29T07:30:34.874Z,51.14
2023-01-29T07:35:40.872Z,51.41
2023-01-29T07:40:42.404Z,51.45
2023-01-29T07:45:43.943Z,51.63
2023-01-29T07:50:45.440Z,51.86
2023-01-29T07:55:46.911Z,51.91
2023-01-29T08:00:48.416Z,51.57
2023-01-29T08:05:49.931Z,51.51
2023-01-29T08:10:51.453Z,51.39
2023-01-29T08:15:52.913Z,50.84
2023-01-29T08:20:59.550Z,50.08
2023-01-29T08:26:03.041Z,48.69
2023-01-29T08:31:05.237Z,47.59
2023-01-29T08:36:07.835Z,47.42
2023-01-29T08:41:10.080Z,47.04
2023-01-29T08:46:11.605Z,46.67
2023-01-29T08:51:13.092Z,44.81
2023-01-29T08:56:14.589Z,44.19
2023-01-29T09:01:16.154Z,43.83
2023-01-29T09:06:17.728Z,43.36
2023-01-29T09:11:19.273Z,43.11
2023-01-29T09:16:20.750Z,42.22
2023-01-29T09:21:22.381Z,43.38
2023-01-29T09:26:23.894Z,43.07
2023-01-29T09:31:25.539Z,42.36
2023-01-29T09:36:27.129Z,43.00
2023-01-29T09:41:47.217Z,42.65
2023-01-29T09:46:52.699Z,42.67
2023-01-29T09:52:02.010Z,42.77
2023-01-29T09:57:03.656Z,42.45
2023-01-29T10:02:38.766Z,41.91
2023-01-29T10:08:03.574Z,40.77
2023-01-29T10:13:27.883Z,41.86
2023-01-29T10:18:49.130Z,41.89
2023-01-29T10:23:57.999Z,42.32
2023-01-29T10:29:02.877Z,41.71
2023-01-29T10:34:13.684Z,40.59
2023-01-29T10:39:20.410Z,41.03
2023-01-29T10:44:33.872Z,41.21
2023-01-29T10:49:35.311Z,41.49
2023-01-29T10:55:00.801Z,40.85
2023-01-29T11:00:13.256Z,41.02
2023-01-29T11:05:37.503Z,40.53
2023-01-29T11:11:03.695Z,42.39
2023-01-29T11:16:06.068Z,42.28
2023-01-29T11:21:07.919Z,41.24
2023-01-29T11:26:13.703Z,41.71
2023-01-29T11:31:36.620Z,41.92
2023-01-29T11:36:39.651Z,42.01
2023-01-29T11:42:02.126Z,41.98
2023-01-29T11:47:17.685Z,42.42
2023-01-29T11:52:21.976Z,42.91
2023-01-29T11:57:23.379Z,42.52
2023-01-29T12:02:30.693Z,42.77
2023-01-29T12:07:33.698Z,42.05
2023-01-29T12:12:39.349Z,42.53
2023-01-29T12:17:44.655Z,42.17
2023-01-29T12:23:01.950Z,41.67
2023-01-29T12:28:19.239Z,40.81
2023-01-29T12:33:42.293Z,40.82
2023-01-29T12:38:45.144Z,41.09
2023-01-29T12:43:52.098Z,40.46
2023-01-29T12:48:57.671Z,41.29
2023-01-29T12:54:05.071Z,41.16
2023-01-29T12:59:24.614Z,41.40
2023-01-29T13:04:40.219Z,40.94
2023-01-29T13:09:46.041Z,42.02
2023-01-29T13:15:22.209Z,41.61
2023-01-29T13:20:31.943Z,41.29
2023-01-29T13:25:33.454Z,40.96
2023-01-29T13:30:37.032Z,41.04
2023-01-29T13:35:42.009Z,40.41
2023-01-29T13:40:49.321Z,41.83
2023-01-29T13:45:53.514Z,42.08
2023-01-29T13:50:59.776Z,41.49
2023-01-29T13:56:28.907Z,41.17
2023-01-29T14:01:45.517Z,40.98
2023-01-29T14:06:50.055Z,40.59
2023-01-29T14:11:52.478Z,40.48
2023-01-29T14:17:02.120Z,40.79
2023-01-29T14:22:05.231Z,39.51
2023-01-29T14:27:22.664Z,40.80
2023-01-29T14:32:25.513Z,41.15
2023-01-29T14:37:40.286Z,40.43
2023-01-29T14:43:08.207Z,41.21
2023-01-29T14:48:09.635Z,40.81
2023-01-29T14:53:13.552Z,40.12
2023-01-29T14:58:39.867Z,40.43
2023-01-29T15:03:47.685Z,41.07
2023-01-29T15:08:56.888Z,41.08
2023-01-29T15:14:16.196Z,41.46
2023-01-29T15:19:28.507Z,41.59
2023-01-29T15:24:29.994Z,41.35
2023-01-29T15:29:31.684Z,40.96
2023-01-29T15:34:33.893Z,41.25
2023-01-29T15:39:43.899Z,41.71
2023-01-29T15:44:45.738Z,41.63
2023-01-29T15:49:47.241Z,41.87
2023-01-29T15:54:49.396Z,41.79
2023-01-29T15:59:53.277Z,41.81
2023-01-29T16:04:55.874Z,43.14
2023-01-29T16:09:59.056Z,42.96
2023-01-29T16:15:03.911Z,43.74
2023-01-29T16:20:08.044Z,43.15
2023-01-29T16:25:14.592Z,43.37
2023-01-29T16:30:17.508Z,43.20
2023-01-29T16:35:19.583Z,43.43
2023-01-29T16:40:34.134Z,43.62
2023-01-29T16:45:35.710Z,42.76
2023-01-29T16:50:53.875Z,43.31
2023-01-29T16:56:06.932Z,43.63
2023-01-29T17:01:10.843Z,43.61
2023-01-29T17:06:19.626Z,43.87
2023-01-29T17:11:30.009Z,43.61
2023-01-29T17:16:33.803Z,43.89
2023-01-29T17:21:35.266Z,43.69
2023-01-29T17:26:36.920Z,43.71
2023-01-29T17:31:38.567Z,44.31
2023-01-29T17:36:41.611Z,44.41
2023-01-29T17:41:47.407Z,44.27
2023-01-29T17:46:49.299Z,44.29
2023-01-29T17:51:52.237Z,44.34
2023-01-29T17:56:54.534Z,44.60
2023-01-29T18:01:56.088Z,44.86
2023-01-29T18:06:57.678Z,44.53
2023-01-29T18:11:59.132Z,44.57
2023-01-29T18:17:00.595Z,44.93
2023-01-29T18:22:02.124Z,44.17
2023-01-29T18:27:03.747Z,44.18
2023-01-29T18:32:05.522Z,44.03
2023-01-29T18:37:06.976Z,43.83
2023-01-29T18:42:08.515Z,43.63
2023-01-29T18:47:10.024Z,43.94
2023-01-29T18:52:11.528Z,44.19
2023-01-29T18:58:25.129Z,44.22
2023-01-29T19:02:34.955Z,43.41
2023-01-29T19:07:36.502Z,42.90
2023-01-29T19:12:39.258Z,43.04
2023-01-29T19:17:40.768Z,43.54
2023-01-29T19:22:42.381Z,43.16
2023-01-29T19:27:43.920Z,43.48
2023-01-29T19:32:45.455Z,43.02
2023-01-29T19:37:47.039Z,43.84
2023-01-29T19:42:48.548Z,43.64
2023-01-29T19:47:50.066Z,43.81
2023-01-29T19:52:52.006Z,43.60
2023-01-29T19:57:54.947Z,43.92
2023-01-29T20:02:56.407Z,44.72
2023-01-29T20:07:57.843Z,44.39
2023-01-29T20:12:59.282Z,45.38
2023-01-29T20:18:00.800Z,45.54
2023-01-29T20:23:02.332Z,45.48
2023-01-29T20:28:05.445Z,45.59
2023-01-29T20:33:07.418Z,45.25
2023-01-29T20:38:08.874Z,45.70
2023-01-29T20:43:10.375Z,45.37
2023-01-29T20:48:11.967Z,46.17
2023-01-29T20:53:13.432Z,46.27
2023-01-29T20:58:14.976Z,46.72
2023-01-29T21:03:16.622Z,46.88
2023-01-29T21:08:18.200Z,46.03
2023-01-29T21:13:19.687Z,45.47
2023-01-29T21:18:21.246Z,45.98
2023-01-29T21:23:22.790Z,45.90
2023-01-29T21:28:24.239Z,45.96
2023-01-29T21:33:25.702Z,46.24
2023-01-29T21:38:27.250Z,45.78
2023-01-29T21:43:29.028Z,45.70
2023-01-29T21:48:30.624Z,45.58
2023-01-29T21:53:32.090Z,45.82
2023-01-29T21:58:33.729Z,45.91
2023-01-29T22:03:35.258Z,46.40
2023-01-29T22:08:36.770Z,46.82
2023-01-29T22:13:38.465Z,47.07
2023-01-29T22:18:39.965Z,47.01
2023-01-29T22:23:41.426Z,46.86
2023-01-29T22:28:43.362Z,46.71
2023-01-29T22:33:44.803Z,46.71
2023-01-29T22:38:46.649Z,47.40
2023-01-29T22:43:48.188Z,47.32
2023-01-29T22:48:49.635Z,47.42
2023-01-29T22:53:56.066Z,46.93
2023-01-29T22:58:59.989Z,47.37
2023-01-29T23:04:01.552Z,47.07
2023-01-29T23:09:03.027Z,46.82
2023-01-29T23:14:04.494Z,46.81
2023-01-29T23:19:05.969Z,47.05
2023-01-29T23:24:08.085Z,46.81
2023-01-29T23:29:10.170Z,47.48
2023-01-29T23:34:11.642Z,47.29
2023-01-29T23:39:13.301Z,47.52
2023-01-29T23:44:15.970Z,47.45
2023-01-29T23:49:17.526Z,48.19
2023-01-29T23:54:19.120Z,48.04
2023-01-29T23:59:20.774Z,47.55
